Etusivu
METAR-TAF:

METAR-TAF

Lentoasemat :

Monroe Municipal Airport

Monroe, Wisconsin, Yhdysvallat

Leveyspiiri: 42-36-54N, Pituuspiiri: 089-35-27W, korkeus merenpinnasta: 331 m

Tämänhetkinen sää

Tämä raportti tehtiin 12 minuuttia sitten, kello 18.15 UTC
Tuuli 12 kn etelästä/lounaasta puuskistuen 17 kn:hen
Lämpötila -6°C
Kosteus 62%
Ilmanpaine 1017 hPa
Näkyvyys: 16.1 km
Hajanaisia pilviä 10000 ft:n korkeudessa

METAR: KEFT 131815Z AUTO 20012G17KT 10SM SCT100 M06/M12 A3002 RMK AO2 T10601118

Aika: 12:27 (18:27 UTC)


TAF: puuttuu

Säähavainnot ja -ennusteet yli 4000 lentoasemalta (METAR- ja TAF-raportit).

Käytössä olevat sääasemat on merkitty karttaan keltaisilla ja punaisilla pisteillä.

Aseta hiiri pisteen päälle nähdäksesi sääaseman nimen.

Klikkaa sitten nähdäksesi säähavainnot ja -ennusteet.

Kartan vaihtaminen: klikkaa mustalla rastilla varustettuja vihreitä pisteitä, niin voit zoomata sisään; viivalla varustettua vihreää pistettä, niin voit zoomata ulos tai vihreitä nuolia, niin pääset viereisille kartoille.


METAR-TAF: